Historique des mesures à Cassis (13260), France
Quotidien Résumé Avril 19, 2018 Unités:  Métrique    US   Métrique/US
« Précédent (Jour)
Suivant (Jour) »
Quotidien Hebdomadaire Mensuel Annuel Période au choix
  Maximum: Minimum: Moyenne:
Température: TemperatureC °C 17.5 °C 20.2 °C
Point de rosée: DewpointC °C 7.8 °C 9 °C
Humidité: Humidity % 40 % 46 %
Vitesse du vent: 0 km/h 0 km/h 3.5 km/h
Rafales: 0 km/h - -
Vent:- - SE
Pression: PressurehPa hPa 1020.5 hPa -
Précipitations: 0.0 mm    
Historical Graphs
 
 
Mesures pour : Avril 19, 2018
Heure Temperature Point de rosée Pression Vent Vitesse du vent Rafales Humidité Pluie (par heure) Conditions
TemperatureC °C DewpointC °C PressurehPa hPa Calm     Humidity % HourlyPrecipMM mm SoftwareType W/m2
00:11 18.3 °C 9.3 °C 1022.9 hPa North 7.6 km/h 7.6 km/h 56 % 0.0 mm open2300-1.11 W/m2
01:11 18.6 °C 9.6 °C 1022.9 hPa Calm   3.4 km/h 56 % 0.0 mm open2300-1.11 W/m2
02:11 18.7 °C 9.2 °C 1023.2 hPa Calm   2.9 km/h 54 % 0.0 mm open2300-1.11 W/m2
03:11 18.5 °C 9.0 °C 1022.6 hPa Calm   4.2 km/h 54 % 0.0 mm open2300-1.11 W/m2
04:11 18.5 °C 8.7 °C 1022.2 hPa Calm   2.3 km/h 53 % 0.0 mm open2300-1.11 W/m2
05:11 18.4 °C 8.3 °C 1021.9 hPa North 8 km/h 8 km/h 52 % 0.0 mm open2300-1.11 W/m2
06:11 17.5 °C 8.3 °C 1021.9 hPa Calm   4.2 km/h 55 % 0.0 mm open2300-1.11 W/m2
07:10 17.6 °C 8.1 °C 1021.9 hPa North 2.9 km/h 2.9 km/h 54 % 0.0 mm open2300-1.11 W/m2
08:10 18.8 °C 8.7 °C 1022.2 hPa North 4.2 km/h 4.2 km/h 52 % 0.0 mm open2300-1.11 W/m2
09:10 19.5 °C 9.4 °C 1022.9 hPa Calm     52 % 0.0 mm open2300-1.11 W/m2
10:10 20.7 °C 8.9 °C 1022.6 hPa SE 10.3 km/h 10.3 km/h 47 % 0.0 mm open2300-1.11 W/m2
11:10 23.6 °C 10.6 °C 1022.9 hPa SE 6.4 km/h 6.4 km/h 44 % 0.0 mm open2300-1.11 W/m2
12:10 24.9 °C 10.7 °C 1022.9 hPa SE 12.2 km/h 12.2 km/h 41 % 0.0 mm open2300-1.11 W/m2
13:10 25.1 °C 10.9 °C 1022.6 hPa West 9.3 km/h 9.3 km/h 41 % 0.0 mm open2300-1.11 W/m2
14:10 25.5 °C 10.9 °C 1022.2 hPa Calm   6.4 km/h 40 % 0.0 mm open2300-1.11 W/m2
15:10 25.0 °C 10.8 °C 1021.6 hPa WNW 8 km/h 8 km/h 41 % 0.0 mm open2300-1.11 W/m2
16:10 24.2 °C 10.4 °C 1021.6 hPa WSW 5.1 km/h 5.1 km/h 42 % 0.0 mm open2300-1.11 W/m2
17:12 24.3 °C 10.9 °C 1021.2 hPa ESE 2.9 km/h 5.6 km/h 43 % 0.0 mm open2300-1.11 W/m2
18:12 23.9 °C 10.2 °C 1020.9 hPa SSW 2.3 km/h 4.2 km/h 42 % 0.0 mm open2300-1.11 W/m2
19:11 23.2 °C 9.6 °C 1020.9 hPa Calm     42 % 0.0 mm open2300-1.11 W/m2
20:12 21.8 °C 9.3 °C 1020.5 hPa Calm     45 % 0.0 mm open2300-1.11 W/m2
21:12 19.9 °C 8.2 °C 1021.2 hPa Calm   5.1 km/h 47 % 0.0 mm open2300-1.11 W/m2
22:11 18.9 °C 7.9 °C 1021.2 hPa Calm   3.4 km/h 49 % 0.0 mm open2300-1.11 W/m2
23:11 18.4 °C 7.8 °C 1020.9 hPa WNW 9.3 km/h 9.3 km/h 50 % 0.0 mm open2300-1.11 W/m2
Observations météo à CASSIS
WU-History script by Weather Underground - 1 mb